sensor_id;sensor_type;location;lat;lon;timestamp;P1;durP1;ratioP1;P2;durP2;ratioP2
69417;SDS011;56610;48.872;2.400;2023-04-15T00:00:14;3.75;;;3.30;;
69417;SDS011;56610;48.872;2.400;2023-04-15T00:02:40;4.03;;;3.20;;
69417;SDS011;56610;48.872;2.400;2023-04-15T00:05:26;3.85;;;3.17;;
69417;SDS011;56610;48.872;2.400;2023-04-15T00:07:53;4.70;;;3.40;;
69417;SDS011;56610;48.872;2.400;2023-04-15T00:10:19;3.90;;;3.20;;
69417;SDS011;56610;48.872;2.400;2023-04-15T00:12:45;4.47;;;3.63;;
69417;SDS011;56610;48.872;2.400;2023-04-15T00:15:10;4.10;;;3.03;;
69417;SDS011;56610;48.872;2.400;2023-04-15T00:17:36;5.40;;;2.97;;
69417;SDS011;56610;48.872;2.400;2023-04-15T00:20:03;3.17;;;2.73;;
69417;SDS011;56610;48.872;2.400;2023-04-15T00:22:30;4.63;;;2.90;;
69417;SDS011;56610;48.872;2.400;2023-04-15T00:24:56;3.33;;;2.85;;
69417;SDS011;56610;48.872;2.400;2023-04-15T00:27:22;4.72;;;3.50;;
69417;SDS011;56610;48.872;2.400;2023-04-15T00:29:48;4.68;;;3.22;;
69417;SDS011;56610;48.872;2.400;2023-04-15T00:32:13;3.78;;;3.28;;
69417;SDS011;56610;48.872;2.400;2023-04-15T00:34:39;4.22;;;3.25;;
69417;SDS011;56610;48.872;2.400;2023-04-15T00:37:06;3.80;;;2.70;;
69417;SDS011;56610;48.872;2.400;2023-04-15T00:39:31;3.45;;;2.88;;
69417;SDS011;56610;48.872;2.400;2023-04-15T00:41:57;3.13;;;2.70;;
69417;SDS011;56610;48.872;2.400;2023-04-15T00:44:22;4.38;;;3.35;;
69417;SDS011;56610;48.872;2.400;2023-04-15T00:46:49;3.97;;;3.25;;
69417;SDS011;56610;48.872;2.400;2023-04-15T00:49:15;3.45;;;3.15;;
69417;SDS011;56610;48.872;2.400;2023-04-15T00:51:42;4.03;;;3.00;;
69417;SDS011;56610;48.872;2.400;2023-04-15T00:54:08;3.67;;;2.83;;
69417;SDS011;56610;48.872;2.400;2023-04-15T00:56:35;6.45;;;3.13;;
69417;SDS011;56610;48.872;2.400;2023-04-15T00:59:02;3.60;;;3.10;;
69417;SDS011;56610;48.872;2.400;2023-04-15T01:01:28;3.38;;;2.88;;
69417;SDS011;56610;48.872;2.400;2023-04-15T01:03:55;3.20;;;2.90;;
69417;SDS011;56610;48.872;2.400;2023-04-15T01:06:24;5.13;;;3.60;;
69417;SDS011;56610;48.872;2.400;2023-04-15T01:08:51;4.35;;;3.10;;
69417;SDS011;56610;48.872;2.400;2023-04-15T01:11:18;3.45;;;2.85;;
69417;SDS011;56610;48.872;2.400;2023-04-15T01:13:44;4.20;;;3.42;;
69417;SDS011;56610;48.872;2.400;2023-04-15T01:16:10;4.30;;;3.00;;
69417;SDS011;56610;48.872;2.400;2023-04-15T01:18:37;4.18;;;3.05;;
69417;SDS011;56610;48.872;2.400;2023-04-15T01:21:03;4.88;;;3.30;;
69417;SDS011;56610;48.872;2.400;2023-04-15T01:23:30;3.70;;;3.00;;
69417;SDS011;56610;48.872;2.400;2023-04-15T01:25:56;3.20;;;2.80;;
69417;SDS011;56610;48.872;2.400;2023-04-15T01:28:23;4.45;;;2.72;;
69417;SDS011;56610;48.872;2.400;2023-04-15T01:30:49;4.45;;;3.30;;
69417;SDS011;56610;48.872;2.400;2023-04-15T01:33:15;4.53;;;3.15;;
69417;SDS011;56610;48.872;2.400;2023-04-15T01:35:40;3.55;;;3.20;;
69417;SDS011;56610;48.872;2.400;2023-04-15T01:38:08;3.45;;;2.97;;
69417;SDS011;56610;48.872;2.400;2023-04-15T01:40:35;4.03;;;3.37;;
69417;SDS011;56610;48.872;2.400;2023-04-15T01:43:01;3.83;;;3.17;;
69417;SDS011;56610;48.872;2.400;2023-04-15T01:45:27;5.13;;;3.75;;
69417;SDS011;56610;48.872;2.400;2023-04-15T01:47:53;4.18;;;3.22;;
69417;SDS011;56610;48.872;2.400;2023-04-15T01:50:19;4.28;;;3.60;;
69417;SDS011;56610;48.872;2.400;2023-04-15T01:52:45;5.28;;;3.53;;
69417;SDS011;56610;48.872;2.400;2023-04-15T01:55:11;3.95;;;3.08;;
69417;SDS011;56610;48.872;2.400;2023-04-15T01:57:38;3.70;;;3.40;;
69417;SDS011;56610;48.872;2.400;2023-04-15T02:00:03;3.47;;;3.17;;
69417;SDS011;56610;48.872;2.400;2023-04-15T02:02:31;6.05;;;3.72;;
69417;SDS011;56610;48.872;2.400;2023-04-15T02:04:57;3.30;;;2.90;;
69417;SDS011;56610;48.872;2.400;2023-04-15T02:07:23;4.25;;;3.33;;
69417;SDS011;56610;48.872;2.400;2023-04-15T02:09:48;3.00;;;2.80;;
69417;SDS011;56610;48.872;2.400;2023-04-15T02:12:14;2.97;;;2.67;;
69417;SDS011;56610;48.872;2.400;2023-04-15T02:14:39;3.05;;;2.75;;
69417;SDS011;56610;48.872;2.400;2023-04-15T02:17:05;2.97;;;2.55;;
69417;SDS011;56610;48.872;2.400;2023-04-15T02:19:34;3.03;;;2.75;;
69417;SDS011;56610;48.872;2.400;2023-04-15T02:22:00;4.20;;;2.90;;
69417;SDS011;56610;48.872;2.400;2023-04-15T02:24:29;2.72;;;2.47;;
69417;SDS011;56610;48.872;2.400;2023-04-15T02:26:55;2.63;;;2.42;;
69417;SDS011;56610;48.872;2.400;2023-04-15T02:29:21;3.00;;;2.35;;
69417;SDS011;56610;48.872;2.400;2023-04-15T02:31:49;2.70;;;2.50;;
69417;SDS011;56610;48.872;2.400;2023-04-15T02:34:15;2.58;;;2.25;;
69417;SDS011;56610;48.872;2.400;2023-04-15T02:36:41;3.00;;;2.60;;
69417;SDS011;56610;48.872;2.400;2023-04-15T02:39:06;3.17;;;2.88;;
69417;SDS011;56610;48.872;2.400;2023-04-15T02:41:32;3.47;;;3.13;;
69417;SDS011;56610;48.872;2.400;2023-04-15T02:43:57;2.80;;;2.55;;
69417;SDS011;56610;48.872;2.400;2023-04-15T02:46:23;2.70;;;2.50;;
69417;SDS011;56610;48.872;2.400;2023-04-15T02:48:49;5.43;;;3.17;;
69417;SDS011;56610;48.872;2.400;2023-04-15T02:53:42;3.60;;;3.28;;
69417;SDS011;56610;48.872;2.400;2023-04-15T02:56:08;3.30;;;3.00;;
69417;SDS011;56610;48.872;2.400;2023-04-15T02:58:34;3.47;;;3.17;;
69417;SDS011;56610;48.872;2.400;2023-04-15T03:01:00;4.50;;;4.20;;
69417;SDS011;56610;48.872;2.400;2023-04-15T03:03:26;4.13;;;3.83;;
69417;SDS011;56610;48.872;2.400;2023-04-15T03:05:52;4.75;;;4.35;;
69417;SDS011;56610;48.872;2.400;2023-04-15T03:08:18;4.35;;;3.95;;
69417;SDS011;56610;48.872;2.400;2023-04-15T03:10:45;4.93;;;4.53;;
69417;SDS011;56610;48.872;2.400;2023-04-15T03:13:11;5.60;;;5.20;;
69417;SDS011;56610;48.872;2.400;2023-04-15T03:15:36;4.70;;;4.40;;
69417;SDS011;56610;48.872;2.400;2023-04-15T03:18:02;6.85;;;6.10;;
69417;SDS011;56610;48.872;2.400;2023-04-15T03:20:28;6.38;;;5.88;;
69417;SDS011;56610;48.872;2.400;2023-04-15T03:22:53;6.25;;;5.75;;
69417;SDS011;56610;48.872;2.400;2023-04-15T03:25:19;6.93;;;6.40;;
69417;SDS011;56610;48.872;2.400;2023-04-15T03:27:44;7.43;;;6.90;;
69417;SDS011;56610;48.872;2.400;2023-04-15T03:30:10;7.97;;;7.18;;
69417;SDS011;56610;48.872;2.400;2023-04-15T03:32:36;8.32;;;7.63;;
69417;SDS011;56610;48.872;2.400;2023-04-15T03:35:02;7.07;;;6.57;;
69417;SDS011;56610;48.872;2.400;2023-04-15T03:37:27;10.00;;;7.68;;
69417;SDS011;56610;48.872;2.400;2023-04-15T03:39:53;8.90;;;8.13;;
69417;SDS011;56610;48.872;2.400;2023-04-15T03:42:19;9.13;;;8.32;;
69417;SDS011;56610;48.872;2.400;2023-04-15T03:44:45;9.32;;;8.43;;
69417;SDS011;56610;48.872;2.400;2023-04-15T03:47:10;10.10;;;9.18;;
69417;SDS011;56610;48.872;2.400;2023-04-15T03:49:36;7.20;;;6.63;;
69417;SDS011;56610;48.872;2.400;2023-04-15T03:52:01;5.57;;;5.15;;
69417;SDS011;56610;48.872;2.400;2023-04-15T03:54:27;6.60;;;6.10;;
69417;SDS011;56610;48.872;2.400;2023-04-15T03:56:53;5.43;;;5.03;;
69417;SDS011;56610;48.872;2.400;2023-04-15T03:59:18;4.13;;;3.83;;
69417;SDS011;56610;48.872;2.400;2023-04-15T04:01:44;4.00;;;3.70;;
69417;SDS011;56610;48.872;2.400;2023-04-15T04:04:10;4.05;;;3.75;;
69417;SDS011;56610;48.872;2.400;2023-04-15T04:06:35;3.22;;;2.97;;
69417;SDS011;56610;48.872;2.400;2023-04-15T04:09:01;4.72;;;2.95;;
69417;SDS011;56610;48.872;2.400;2023-04-15T04:11:27;2.95;;;2.63;;
69417;SDS011;56610;48.872;2.400;2023-04-15T04:13:52;3.42;;;3.13;;
69417;SDS011;56610;48.872;2.400;2023-04-15T04:16:18;2.60;;;2.40;;
69417;SDS011;56610;48.872;2.400;2023-04-15T04:18:44;2.85;;;2.65;;
69417;SDS011;56610;48.872;2.400;2023-04-15T04:21:09;3.03;;;2.75;;
69417;SDS011;56610;48.872;2.400;2023-04-15T04:23:35;2.95;;;2.60;;
69417;SDS011;56610;48.872;2.400;2023-04-15T04:26:01;2.38;;;2.17;;
69417;SDS011;56610;48.872;2.400;2023-04-15T04:28:26;3.17;;;2.70;;
69417;SDS011;56610;48.872;2.400;2023-04-15T04:30:52;2.67;;;2.47;;
69417;SDS011;56610;48.872;2.400;2023-04-15T04:33:17;2.90;;;2.70;;
69417;SDS011;56610;48.872;2.400;2023-04-15T04:35:43;2.45;;;2.05;;
69417;SDS011;56610;48.872;2.400;2023-04-15T04:38:09;2.40;;;2.20;;
69417;SDS011;56610;48.872;2.400;2023-04-15T04:40:35;2.83;;;2.55;;
69417;SDS011;56610;48.872;2.400;2023-04-15T04:43:00;2.28;;;2.08;;
69417;SDS011;56610;48.872;2.400;2023-04-15T04:45:26;2.00;;;1.83;;
69417;SDS011;56610;48.872;2.400;2023-04-15T04:47:52;2.20;;;2.00;;
69417;SDS011;56610;48.872;2.400;2023-04-15T04:50:17;1.75;;;1.65;;
69417;SDS011;56610;48.872;2.400;2023-04-15T04:52:43;2.88;;;1.88;;
69417;SDS011;56610;48.872;2.400;2023-04-15T04:55:09;2.03;;;1.70;;
69417;SDS011;56610;48.872;2.400;2023-04-15T04:57:34;2.55;;;2.20;;
69417;SDS011;56610;48.872;2.400;2023-04-15T05:00:00;1.70;;;1.60;;
69417;SDS011;56610;48.872;2.400;2023-04-15T05:02:28;1.95;;;1.60;;
69417;SDS011;56610;48.872;2.400;2023-04-15T05:04:54;2.20;;;1.50;;
69417;SDS011;56610;48.872;2.400;2023-04-15T05:07:19;1.75;;;1.65;;
69417;SDS011;56610;48.872;2.400;2023-04-15T05:09:45;2.40;;;1.40;;
69417;SDS011;56610;48.872;2.400;2023-04-15T05:12:11;1.85;;;1.60;;
69417;SDS011;56610;48.872;2.400;2023-04-15T05:14:39;3.05;;;1.50;;
69417;SDS011;56610;48.872;2.400;2023-04-15T05:17:05;1.10;;;1.10;;
69417;SDS011;56610;48.872;2.400;2023-04-15T05:19:31;4.72;;;1.45;;
69417;SDS011;56610;48.872;2.400;2023-04-15T05:21:57;1.88;;;1.10;;
69417;SDS011;56610;48.872;2.400;2023-04-15T05:24:22;1.45;;;1.25;;
69417;SDS011;56610;48.872;2.400;2023-04-15T05:26:48;1.75;;;1.13;;
69417;SDS011;56610;48.872;2.400;2023-04-15T05:29:14;1.25;;;1.15;;
69417;SDS011;56610;48.872;2.400;2023-04-15T05:31:40;1.95;;;1.42;;
69417;SDS011;56610;48.872;2.400;2023-04-15T05:34:06;1.50;;;1.40;;
69417;SDS011;56610;48.872;2.400;2023-04-15T05:36:31;1.52;;;1.42;;
69417;SDS011;56610;48.872;2.400;2023-04-15T05:38:57;1.50;;;1.40;;
69417;SDS011;56610;48.872;2.400;2023-04-15T05:41:22;1.45;;;1.35;;
69417;SDS011;56610;48.872;2.400;2023-04-15T05:43:48;1.80;;;1.70;;
69417;SDS011;56610;48.872;2.400;2023-04-15T05:46:13;1.60;;;1.50;;
69417;SDS011;56610;48.872;2.400;2023-04-15T05:48:39;1.40;;;1.30;;
69417;SDS011;56610;48.872;2.400;2023-04-15T05:51:05;1.60;;;1.50;;
69417;SDS011;56610;48.872;2.400;2023-04-15T05:53:31;1.40;;;1.30;;
69417;SDS011;56610;48.872;2.400;2023-04-15T05:55:56;1.45;;;1.35;;
69417;SDS011;56610;48.872;2.400;2023-04-15T05:58:22;1.50;;;1.40;;
69417;SDS011;56610;48.872;2.400;2023-04-15T06:00:47;1.92;;;1.63;;
69417;SDS011;56610;48.872;2.400;2023-04-15T06:03:13;2.00;;;1.90;;
69417;SDS011;56610;48.872;2.400;2023-04-15T06:05:39;1.83;;;1.73;;
69417;SDS011;56610;48.872;2.400;2023-04-15T06:08:05;1.65;;;1.48;;
69417;SDS011;56610;48.872;2.400;2023-04-15T06:10:30;1.65;;;1.55;;
69417;SDS011;56610;48.872;2.400;2023-04-15T06:13:00;2.38;;;2.17;;
69417;SDS011;56610;48.872;2.400;2023-04-15T06:15:27;1.90;;;1.80;;
69417;SDS011;56610;48.872;2.400;2023-04-15T06:17:52;1.98;;;1.88;;
69417;SDS011;56610;48.872;2.400;2023-04-15T06:20:18;1.98;;;1.80;;
69417;SDS011;56610;48.872;2.400;2023-04-15T06:22:44;1.75;;;1.60;;
69417;SDS011;56610;48.872;2.400;2023-04-15T06:25:10;2.10;;;1.85;;
69417;SDS011;56610;48.872;2.400;2023-04-15T06:27:35;1.88;;;1.77;;
69417;SDS011;56610;48.872;2.400;2023-04-15T06:30:01;1.95;;;1.80;;
69417;SDS011;56610;48.872;2.400;2023-04-15T06:32:27;2.95;;;2.30;;
69417;SDS011;56610;48.872;2.400;2023-04-15T06:34:53;1.70;;;1.60;;
69417;SDS011;56610;48.872;2.400;2023-04-15T06:37:18;1.95;;;1.60;;
69417;SDS011;56610;48.872;2.400;2023-04-15T06:39:44;1.80;;;1.70;;
69417;SDS011;56610;48.872;2.400;2023-04-15T06:42:10;2.25;;;1.70;;
69417;SDS011;56610;48.872;2.400;2023-04-15T06:44:36;1.25;;;1.17;;
69417;SDS011;56610;48.872;2.400;2023-04-15T06:47:02;1.45;;;1.35;;
69417;SDS011;56610;48.872;2.400;2023-04-15T06:49:27;1.50;;;1.40;;
69417;SDS011;56610;48.872;2.400;2023-04-15T06:51:53;1.50;;;1.40;;
69417;SDS011;56610;48.872;2.400;2023-04-15T06:54:19;1.45;;;1.35;;
69417;SDS011;56610;48.872;2.400;2023-04-15T06:56:45;1.00;;;1.00;;
69417;SDS011;56610;48.872;2.400;2023-04-15T06:59:11;1.10;;;1.00;;
69417;SDS011;56610;48.872;2.400;2023-04-15T07:01:38;1.48;;;1.30;;
69417;SDS011;56610;48.872;2.400;2023-04-15T07:04:05;1.05;;;0.93;;
69417;SDS011;56610;48.872;2.400;2023-04-15T07:06:34;1.02;;;0.90;;
69417;SDS011;56610;48.872;2.400;2023-04-15T07:08:59;1.08;;;1.00;;
69417;SDS011;56610;48.872;2.400;2023-04-15T07:11:26;1.00;;;1.00;;
69417;SDS011;56610;48.872;2.400;2023-04-15T07:13:51;1.00;;;1.00;;
69417;SDS011;56610;48.872;2.400;2023-04-15T07:16:17;0.93;;;0.85;;
69417;SDS011;56610;48.872;2.400;2023-04-15T07:18:43;1.00;;;0.90;;
69417;SDS011;56610;48.872;2.400;2023-04-15T07:21:08;0.90;;;0.90;;
69417;SDS011;56610;48.872;2.400;2023-04-15T07:23:34;1.52;;;0.88;;
69417;SDS011;56610;48.872;2.400;2023-04-15T07:26:00;1.08;;;0.80;;
69417;SDS011;56610;48.872;2.400;2023-04-15T07:28:26;0.80;;;0.80;;
69417;SDS011;56610;48.872;2.400;2023-04-15T07:30:51;0.85;;;0.70;;
69417;SDS011;56610;48.872;2.400;2023-04-15T07:33:17;0.60;;;0.60;;
69417;SDS011;56610;48.872;2.400;2023-04-15T07:35:43;0.45;;;0.45;;
69417;SDS011;56610;48.872;2.400;2023-04-15T07:38:09;0.68;;;0.68;;
69417;SDS011;56610;48.872;2.400;2023-04-15T07:40:37;0.77;;;0.70;;
69417;SDS011;56610;48.872;2.400;2023-04-15T07:43:03;0.57;;;0.55;;
69417;SDS011;56610;48.872;2.400;2023-04-15T07:45:29;0.65;;;0.60;;
69417;SDS011;56610;48.872;2.400;2023-04-15T07:47:55;0.50;;;0.50;;
69417;SDS011;56610;48.872;2.400;2023-04-15T07:50:21;0.98;;;0.60;;
69417;SDS011;56610;48.872;2.400;2023-04-15T07:52:48;0.60;;;0.60;;
69417;SDS011;56610;48.872;2.400;2023-04-15T07:55:14;0.50;;;0.50;;
69417;SDS011;56610;48.872;2.400;2023-04-15T07:57:43;0.60;;;0.60;;
69417;SDS011;56610;48.872;2.400;2023-04-15T08:00:08;0.55;;;0.55;;
69417;SDS011;56610;48.872;2.400;2023-04-15T08:02:35;0.85;;;0.75;;
69417;SDS011;56610;48.872;2.400;2023-04-15T08:05:01;0.68;;;0.65;;
69417;SDS011;56610;48.872;2.400;2023-04-15T08:07:28;0.63;;;0.63;;
69417;SDS011;56610;48.872;2.400;2023-04-15T08:09:54;1.25;;;0.80;;
69417;SDS011;56610;48.872;2.400;2023-04-15T08:12:19;0.90;;;0.90;;
69417;SDS011;56610;48.872;2.400;2023-04-15T08:14:45;0.82;;;0.80;;
69417;SDS011;56610;48.872;2.400;2023-04-15T08:17:11;2.22;;;0.82;;
69417;SDS011;56610;48.872;2.400;2023-04-15T08:19:36;1.30;;;0.90;;
69417;SDS011;56610;48.872;2.400;2023-04-15T08:22:02;1.00;;;1.00;;
69417;SDS011;56610;48.872;2.400;2023-04-15T08:24:28;0.90;;;0.80;;
69417;SDS011;56610;48.872;2.400;2023-04-15T08:26:55;0.90;;;0.80;;
69417;SDS011;56610;48.872;2.400;2023-04-15T08:29:21;1.10;;;0.80;;
69417;SDS011;56610;48.872;2.400;2023-04-15T08:31:47;0.95;;;0.77;;
69417;SDS011;56610;48.872;2.400;2023-04-15T08:34:13;1.05;;;0.98;;
69417;SDS011;56610;48.872;2.400;2023-04-15T08:36:39;0.95;;;0.73;;
69417;SDS011;56610;48.872;2.400;2023-04-15T08:39:05;0.90;;;0.90;;
69417;SDS011;56610;48.872;2.400;2023-04-15T08:41:55;0.98;;;0.95;;
69417;SDS011;56610;48.872;2.400;2023-04-15T08:44:27;0.75;;;0.75;;
69417;SDS011;56610;48.872;2.400;2023-04-15T08:46:56;0.95;;;0.82;;
69417;SDS011;56610;48.872;2.400;2023-04-15T08:49:25;0.70;;;0.70;;
69417;SDS011;56610;48.872;2.400;2023-04-15T08:51:52;1.15;;;0.93;;
69417;SDS011;56610;48.872;2.400;2023-04-15T08:56:46;0.80;;;0.80;;
69417;SDS011;56610;48.872;2.400;2023-04-15T08:59:13;1.00;;;0.80;;
69417;SDS011;56610;48.872;2.400;2023-04-15T09:01:40;0.80;;;0.80;;
69417;SDS011;56610;48.872;2.400;2023-04-15T09:04:06;1.35;;;0.98;;
69417;SDS011;56610;48.872;2.400;2023-04-15T09:06:32;1.42;;;1.10;;
69417;SDS011;56610;48.872;2.400;2023-04-15T09:08:58;0.77;;;0.77;;
69417;SDS011;56610;48.872;2.400;2023-04-15T09:11:23;0.88;;;0.88;;
69417;SDS011;56610;48.872;2.400;2023-04-15T09:13:49;1.17;;;0.70;;
69417;SDS011;56610;48.872;2.400;2023-04-15T09:16:15;0.70;;;0.70;;
69417;SDS011;56610;48.872;2.400;2023-04-15T09:18:41;0.80;;;0.80;;
69417;SDS011;56610;48.872;2.400;2023-04-15T09:21:07;1.20;;;1.05;;
69417;SDS011;56610;48.872;2.400;2023-04-15T09:26:01;1.15;;;0.77;;
69417;SDS011;56610;48.872;2.400;2023-04-15T09:28:28;1.35;;;0.90;;
69417;SDS011;56610;48.872;2.400;2023-04-15T09:31:00;0.77;;;0.70;;
69417;SDS011;56610;48.872;2.400;2023-04-15T09:33:27;1.45;;;1.00;;
69417;SDS011;56610;48.872;2.400;2023-04-15T09:35:59;1.10;;;1.00;;
69417;SDS011;56610;48.872;2.400;2023-04-15T09:38:26;3.65;;;1.20;;
69417;SDS011;56610;48.872;2.400;2023-04-15T09:40:52;1.73;;;1.10;;
69417;SDS011;56610;48.872;2.400;2023-04-15T09:43:18;1.40;;;1.05;;
69417;SDS011;56610;48.872;2.400;2023-04-15T09:45:48;1.00;;;0.90;;
69417;SDS011;56610;48.872;2.400;2023-04-15T09:48:20;1.10;;;0.90;;
69417;SDS011;56610;48.872;2.400;2023-04-15T09:50:47;1.13;;;1.02;;
69417;SDS011;56610;48.872;2.400;2023-04-15T09:53:17;2.77;;;1.57;;
69417;SDS011;56610;48.872;2.400;2023-04-15T09:55:51;1.35;;;1.10;;
69417;SDS011;56610;48.872;2.400;2023-04-15T09:58:19;2.10;;;1.10;;
69417;SDS011;56610;48.872;2.400;2023-04-15T10:00:46;1.42;;;1.23;;
69417;SDS011;56610;48.872;2.400;2023-04-15T10:03:14;2.53;;;1.20;;
69417;SDS011;56610;48.872;2.400;2023-04-15T10:05:44;1.92;;;1.17;;
69417;SDS011;56610;48.872;2.400;2023-04-15T10:08:12;1.08;;;0.98;;
69417;SDS011;56610;48.872;2.400;2023-04-15T10:10:40;1.30;;;1.10;;
69417;SDS011;56610;48.872;2.400;2023-04-15T10:13:05;1.25;;;0.88;;
69417;SDS011;56610;48.872;2.400;2023-04-15T10:15:32;1.85;;;1.15;;
69417;SDS011;56610;48.872;2.400;2023-04-15T10:17:58;3.17;;;1.17;;
69417;SDS011;56610;48.872;2.400;2023-04-15T10:20:25;1.27;;;1.10;;
69417;SDS011;56610;48.872;2.400;2023-04-15T10:22:52;2.20;;;1.20;;
69417;SDS011;56610;48.872;2.400;2023-04-15T10:25:18;1.83;;;1.30;;
69417;SDS011;56610;48.872;2.400;2023-04-15T10:27:44;1.23;;;1.10;;
69417;SDS011;56610;48.872;2.400;2023-04-15T10:32:38;1.27;;;1.13;;
69417;SDS011;56610;48.872;2.400;2023-04-15T10:35:04;1.70;;;1.30;;
69417;SDS011;56610;48.872;2.400;2023-04-15T10:37:34;1.02;;;0.88;;
69417;SDS011;56610;48.872;2.400;2023-04-15T10:40:22;1.60;;;1.10;;
69417;SDS011;56610;48.872;2.400;2023-04-15T10:42:48;1.58;;;1.00;;
69417;SDS011;56610;48.872;2.400;2023-04-15T10:45:17;1.27;;;1.00;;
69417;SDS011;56610;48.872;2.400;2023-04-15T10:47:43;2.55;;;1.33;;
69417;SDS011;56610;48.872;2.400;2023-04-15T10:50:09;1.23;;;1.00;;
69417;SDS011;56610;48.872;2.400;2023-04-15T10:52:34;1.70;;;1.10;;
69417;SDS011;56610;48.872;2.400;2023-04-15T10:57:43;1.75;;;1.00;;
69417;SDS011;56610;48.872;2.400;2023-04-15T11:00:10;2.80;;;1.05;;
69417;SDS011;56610;48.872;2.400;2023-04-15T11:05:03;1.25;;;1.02;;
69417;SDS011;56610;48.872;2.400;2023-04-15T11:07:32;1.13;;;1.00;;
69417;SDS011;56610;48.872;2.400;2023-04-15T11:10:49;1.98;;;1.30;;
69417;SDS011;56610;48.872;2.400;2023-04-15T11:12:53;2.13;;;1.27;;
69417;SDS011;56610;48.872;2.400;2023-04-15T11:20:58;1.45;;;0.90;;
69417;SDS011;56610;48.872;2.400;2023-04-15T11:23:36;1.13;;;1.02;;
69417;SDS011;56610;48.872;2.400;2023-04-15T11:26:04;0.80;;;0.80;;
69417;SDS011;56610;48.872;2.400;2023-04-15T11:28:33;1.73;;;0.80;;
69417;SDS011;56610;48.872;2.400;2023-04-15T11:31:06;1.00;;;0.90;;
69417;SDS011;56610;48.872;2.400;2023-04-15T11:33:34;1.30;;;1.20;;
69417;SDS011;56610;48.872;2.400;2023-04-15T11:36:00;1.33;;;1.20;;
69417;SDS011;56610;48.872;2.400;2023-04-15T11:38:26;2.63;;;1.50;;
69417;SDS011;56610;48.872;2.400;2023-04-15T11:40:52;1.27;;;1.00;;
69417;SDS011;56610;48.872;2.400;2023-04-15T11:43:18;1.67;;;1.27;;
69417;SDS011;56610;48.872;2.400;2023-04-15T11:45:52;1.35;;;0.98;;
69417;SDS011;56610;48.872;2.400;2023-04-15T11:48:24;2.35;;;1.10;;
69417;SDS011;56610;48.872;2.400;2023-04-15T11:50:54;2.45;;;1.23;;
69417;SDS011;56610;48.872;2.400;2023-04-15T11:53:24;2.17;;;1.10;;
69417;SDS011;56610;48.872;2.400;2023-04-15T11:56:05;2.10;;;1.10;;
69417;SDS011;56610;48.872;2.400;2023-04-15T11:58:33;1.75;;;0.93;;
69417;SDS011;56610;48.872;2.400;2023-04-15T12:01:01;1.10;;;0.98;;
69417;SDS011;56610;48.872;2.400;2023-04-15T12:03:28;1.80;;;0.98;;
69417;SDS011;56610;48.872;2.400;2023-04-15T12:08:47;1.70;;;1.48;;
69417;SDS011;56610;48.872;2.400;2023-04-15T12:13:54;1.10;;;1.00;;
69417;SDS011;56610;48.872;2.400;2023-04-15T12:16:33;1.10;;;1.00;;
69417;SDS011;56610;48.872;2.400;2023-04-15T12:18:59;1.05;;;0.90;;
69417;SDS011;56610;48.872;2.400;2023-04-15T12:21:32;2.65;;;1.65;;
69417;SDS011;56610;48.872;2.400;2023-04-15T12:24:00;5.47;;;1.23;;
69417;SDS011;56610;48.872;2.400;2023-04-15T12:26:33;1.30;;;1.00;;
69417;SDS011;56610;48.872;2.400;2023-04-15T12:29:01;1.40;;;1.10;;
69417;SDS011;56610;48.872;2.400;2023-04-15T12:31:28;2.00;;;1.23;;
69417;SDS011;56610;48.872;2.400;2023-04-15T12:33:54;1.65;;;1.10;;
69417;SDS011;56610;48.872;2.400;2023-04-15T12:36:20;2.22;;;1.27;;
69417;SDS011;56610;48.872;2.400;2023-04-15T12:38:47;1.50;;;1.10;;
69417;SDS011;56610;48.872;2.400;2023-04-15T12:41:13;1.38;;;1.00;;
69417;SDS011;56610;48.872;2.400;2023-04-15T12:43:38;1.08;;;0.98;;
69417;SDS011;56610;48.872;2.400;2023-04-15T12:46:04;3.08;;;1.20;;
69417;SDS011;56610;48.872;2.400;2023-04-15T12:48:30;1.55;;;1.13;;
69417;SDS011;56610;48.872;2.400;2023-04-15T12:50:57;1.40;;;0.90;;
69417;SDS011;56610;48.872;2.400;2023-04-15T12:53:22;1.20;;;0.90;;
69417;SDS011;56610;48.872;2.400;2023-04-15T12:55:48;2.63;;;1.27;;
69417;SDS011;56610;48.872;2.400;2023-04-15T12:58:13;2.95;;;1.42;;
69417;SDS011;56610;48.872;2.400;2023-04-15T13:00:39;1.40;;;1.30;;
69417;SDS011;56610;48.872;2.400;2023-04-15T13:03:04;1.20;;;1.10;;
69417;SDS011;56610;48.872;2.400;2023-04-15T13:05:30;1.05;;;0.95;;
69417;SDS011;56610;48.872;2.400;2023-04-15T13:07:56;2.75;;;1.40;;
69417;SDS011;56610;48.872;2.400;2023-04-15T13:10:21;1.63;;;1.20;;
69417;SDS011;56610;48.872;2.400;2023-04-15T13:12:50;2.08;;;1.10;;
69417;SDS011;56610;48.872;2.400;2023-04-15T13:15:17;1.15;;;0.88;;
69417;SDS011;56610;48.872;2.400;2023-04-15T13:17:45;2.35;;;1.00;;
69417;SDS011;56610;48.872;2.400;2023-04-15T13:20:10;1.23;;;1.10;;
69417;SDS011;56610;48.872;2.400;2023-04-15T13:22:36;1.40;;;1.10;;
69417;SDS011;56610;48.872;2.400;2023-04-15T13:25:02;1.38;;;0.93;;
69417;SDS011;56610;48.872;2.400;2023-04-15T13:27:27;1.98;;;1.08;;
69417;SDS011;56610;48.872;2.400;2023-04-15T13:29:53;1.25;;;1.00;;
69417;SDS011;56610;48.872;2.400;2023-04-15T13:32:19;3.22;;;1.20;;
69417;SDS011;56610;48.872;2.400;2023-04-15T13:34:45;1.27;;;1.00;;
69417;SDS011;56610;48.872;2.400;2023-04-15T13:37:11;1.70;;;1.30;;
69417;SDS011;56610;48.872;2.400;2023-04-15T13:39:36;2.47;;;1.10;;
69417;SDS011;56610;48.872;2.400;2023-04-15T13:42:02;2.45;;;1.20;;
69417;SDS011;56610;48.872;2.400;2023-04-15T13:44:28;1.63;;;0.80;;
69417;SDS011;56610;48.872;2.400;2023-04-15T13:46:54;1.67;;;1.13;;
69417;SDS011;56610;48.872;2.400;2023-04-15T13:49:20;1.60;;;0.90;;
69417;SDS011;56610;48.872;2.400;2023-04-15T13:51:45;1.83;;;0.90;;
69417;SDS011;56610;48.872;2.400;2023-04-15T13:54:11;1.55;;;1.00;;
69417;SDS011;56610;48.872;2.400;2023-04-15T13:56:36;1.00;;;0.70;;
69417;SDS011;56610;48.872;2.400;2023-04-15T13:59:02;0.77;;;0.65;;
69417;SDS011;56610;48.872;2.400;2023-04-15T14:01:28;1.23;;;0.90;;
69417;SDS011;56610;48.872;2.400;2023-04-15T14:03:54;2.85;;;1.15;;
69417;SDS011;56610;48.872;2.400;2023-04-15T14:06:19;3.60;;;1.00;;
69417;SDS011;56610;48.872;2.400;2023-04-15T14:08:45;2.08;;;0.90;;
69417;SDS011;56610;48.872;2.400;2023-04-15T14:11:11;1.45;;;0.90;;
69417;SDS011;56610;48.872;2.400;2023-04-15T14:13:36;0.85;;;0.75;;
69417;SDS011;56610;48.872;2.400;2023-04-15T14:16:02;0.75;;;0.70;;
69417;SDS011;56610;48.872;2.400;2023-04-15T14:18:28;1.90;;;0.93;;
69417;SDS011;56610;48.872;2.400;2023-04-15T14:20:54;1.13;;;0.95;;
69417;SDS011;56610;48.872;2.400;2023-04-15T14:23:21;2.15;;;0.93;;
69417;SDS011;56610;48.872;2.400;2023-04-15T14:25:47;2.13;;;0.93;;
69417;SDS011;56610;48.872;2.400;2023-04-15T14:28:13;1.70;;;0.95;;
69417;SDS011;56610;48.872;2.400;2023-04-15T14:30:39;2.25;;;1.10;;
69417;SDS011;56610;48.872;2.400;2023-04-15T14:33:04;1.95;;;1.17;;
69417;SDS011;56610;48.872;2.400;2023-04-15T14:35:30;1.92;;;1.20;;
69417;SDS011;56610;48.872;2.400;2023-04-15T14:37:56;1.33;;;0.80;;
69417;SDS011;56610;48.872;2.400;2023-04-15T14:40:22;1.45;;;1.17;;
69417;SDS011;56610;48.872;2.400;2023-04-15T14:42:47;1.65;;;1.20;;
69417;SDS011;56610;48.872;2.400;2023-04-15T14:45:13;2.03;;;1.27;;
69417;SDS011;56610;48.872;2.400;2023-04-15T14:47:39;2.72;;;1.15;;
69417;SDS011;56610;48.872;2.400;2023-04-15T14:50:04;3.13;;;1.35;;
69417;SDS011;56610;48.872;2.400;2023-04-15T14:52:30;2.38;;;1.20;;
69417;SDS011;56610;48.872;2.400;2023-04-15T14:55:04;1.20;;;1.10;;
69417;SDS011;56610;48.872;2.400;2023-04-15T14:57:30;1.75;;;1.10;;
69417;SDS011;56610;48.872;2.400;2023-04-15T14:59:56;1.98;;;1.27;;
69417;SDS011;56610;48.872;2.400;2023-04-15T15:02:21;2.13;;;1.20;;
69417;SDS011;56610;48.872;2.400;2023-04-15T15:04:47;1.85;;;1.15;;
69417;SDS011;56610;48.872;2.400;2023-04-15T15:07:13;2.05;;;1.15;;
69417;SDS011;56610;48.872;2.400;2023-04-15T15:09:38;1.65;;;0.90;;